sensor_id;sensor_type;location;lat;lon;timestamp;pressure;altitude;pressure_sealevel;temperature;humidity
28008;BME280;15333;50.010;20.020;2024-02-23T00:00:53;96933.19;;;10.50;86.53
28008;BME280;15333;50.010;20.020;2024-02-23T00:04:15;96938.47;;;10.42;87.46
28008;BME280;15333;50.010;20.020;2024-02-23T00:07:16;96940.16;;;10.43;87.26
28008;BME280;15333;50.010;20.020;2024-02-23T00:10:17;96934.28;;;10.39;87.92
28008;BME280;15333;50.010;20.020;2024-02-23T00:13:18;96941.31;;;10.40;88.03
28008;BME280;15333;50.010;20.020;2024-02-23T00:16:19;96932.28;;;10.41;87.99
28008;BME280;15333;50.010;20.020;2024-02-23T00:19:20;96932.75;;;10.29;88.91
28008;BME280;15333;50.010;20.020;2024-02-23T00:22:21;96930.63;;;10.40;88.94
28008;BME280;15333;50.010;20.020;2024-02-23T00:25:22;96932.09;;;10.35;88.83
28008;BME280;15333;50.010;20.020;2024-02-23T00:28:23;96945.31;;;10.36;88.82
28008;BME280;15333;50.010;20.020;2024-02-23T00:31:24;96936.31;;;10.37;89.56
28008;BME280;15333;50.010;20.020;2024-02-23T00:34:25;96934.63;;;10.36;89.68
28008;BME280;15333;50.010;20.020;2024-02-23T00:37:27;96927.41;;;10.29;90.03
28008;BME280;15333;50.010;20.020;2024-02-23T00:40:27;96924.88;;;10.27;91.49
28008;BME280;15333;50.010;20.020;2024-02-23T00:43:28;96929.19;;;10.20;92.60
28008;BME280;15333;50.010;20.020;2024-02-23T00:46:32;96928.53;;;10.26;92.12
28008;BME280;15333;50.010;20.020;2024-02-23T00:49:33;96929.28;;;10.36;92.38
28008;BME280;15333;50.010;20.020;2024-02-23T00:52:34;96923.94;;;10.36;92.66
28008;BME280;15333;50.010;20.020;2024-02-23T00:55:35;96930.13;;;10.37;92.64
28008;BME280;15333;50.010;20.020;2024-02-23T00:58:36;96931.91;;;10.28;94.28
28008;BME280;15333;50.010;20.020;2024-02-23T01:01:37;96928.84;;;10.23;95.99
28008;BME280;15333;50.010;20.020;2024-02-23T01:04:38;96921.22;;;10.28;97.40
28008;BME280;15333;50.010;20.020;2024-02-23T01:07:39;96924.75;;;10.11;100.00
28008;BME280;15333;50.010;20.020;2024-02-23T01:10:40;96913.72;;;10.06;100.00
28008;BME280;15333;50.010;20.020;2024-02-23T01:13:41;96919.28;;;9.87;100.00
28008;BME280;15333;50.010;20.020;2024-02-23T01:16:42;96919.88;;;9.80;100.00
28008;BME280;15333;50.010;20.020;2024-02-23T01:19:43;96922.25;;;9.83;100.00
28008;BME280;15333;50.010;20.020;2024-02-23T01:22:44;96917.53;;;9.77;100.00
28008;BME280;15333;50.010;20.020;2024-02-23T01:25:45;96922.75;;;9.61;100.00
28008;BME280;15333;50.010;20.020;2024-02-23T01:28:45;96925.78;;;9.66;100.00
28008;BME280;15333;50.010;20.020;2024-02-23T01:31:46;96920.16;;;9.69;100.00
28008;BME280;15333;50.010;20.020;2024-02-23T01:34:47;96914.69;;;9.53;100.00
28008;BME280;15333;50.010;20.020;2024-02-23T01:37:48;96909.34;;;9.53;100.00
28008;BME280;15333;50.010;20.020;2024-02-23T01:40:49;96903.78;;;9.47;100.00
28008;BME280;15333;50.010;20.020;2024-02-23T01:43:50;96904.94;;;9.44;100.00
28008;BME280;15333;50.010;20.020;2024-02-23T01:46:51;96895.56;;;9.40;100.00
28008;BME280;15333;50.010;20.020;2024-02-23T01:49:53;96893.31;;;9.53;100.00
28008;BME280;15333;50.010;20.020;2024-02-23T01:52:57;96883.69;;;9.60;100.00
28008;BME280;15333;50.010;20.020;2024-02-23T01:56:00;96892.47;;;9.53;100.00
28008;BME280;15333;50.010;20.020;2024-02-23T01:59:02;96880.97;;;9.52;100.00
28008;BME280;15333;50.010;20.020;2024-02-23T02:02:04;96885.16;;;9.55;100.00
28008;BME280;15333;50.010;20.020;2024-02-23T02:05:06;96901.31;;;9.53;100.00
28008;BME280;15333;50.010;20.020;2024-02-23T02:08:09;96900.03;;;9.57;100.00
28008;BME280;15333;50.010;20.020;2024-02-23T02:11:10;96900.03;;;9.57;100.00
28008;BME280;15333;50.010;20.020;2024-02-23T02:14:11;96894.16;;;9.54;100.00
28008;BME280;15333;50.010;20.020;2024-02-23T02:17:12;96891.03;;;9.58;100.00
28008;BME280;15333;50.010;20.020;2024-02-23T02:20:13;96894.00;;;9.55;100.00
28008;BME280;15333;50.010;20.020;2024-02-23T02:23:14;96890.56;;;9.63;100.00
28008;BME280;15333;50.010;20.020;2024-02-23T02:26:15;96884.72;;;9.67;100.00
28008;BME280;15333;50.010;20.020;2024-02-23T02:29:16;96885.06;;;9.64;100.00
28008;BME280;15333;50.010;20.020;2024-02-23T02:32:17;96888.97;;;9.52;100.00
28008;BME280;15333;50.010;20.020;2024-02-23T02:35:18;96893.03;;;9.56;100.00
28008;BME280;15333;50.010;20.020;2024-02-23T02:38:19;96889.66;;;9.54;100.00
28008;BME280;15333;50.010;20.020;2024-02-23T02:41:23;96887.06;;;9.62;100.00
28008;BME280;15333;50.010;20.020;2024-02-23T02:44:24;96888.41;;;9.66;100.00
28008;BME280;15333;50.010;20.020;2024-02-23T02:47:27;96898.38;;;9.56;100.00
28008;BME280;15333;50.010;20.020;2024-02-23T02:50:28;96905.44;;;9.65;100.00
28008;BME280;15333;50.010;20.020;2024-02-23T02:53:28;96899.13;;;9.74;100.00
28008;BME280;15333;50.010;20.020;2024-02-23T02:56:29;96904.25;;;9.86;100.00
28008;BME280;15333;50.010;20.020;2024-02-23T02:59:34;96899.56;;;9.88;100.00
28008;BME280;15333;50.010;20.020;2024-02-23T03:02:35;96903.91;;;9.89;100.00
28008;BME280;15333;50.010;20.020;2024-02-23T03:05:36;96895.53;;;9.83;100.00
28008;BME280;15333;50.010;20.020;2024-02-23T03:08:37;96896.56;;;9.91;100.00
28008;BME280;15333;50.010;20.020;2024-02-23T03:11:37;96897.16;;;9.76;100.00
28008;BME280;15333;50.010;20.020;2024-02-23T03:14:39;96894.59;;;9.93;100.00
28008;BME280;15333;50.010;20.020;2024-02-23T03:17:40;96902.91;;;9.90;100.00
28008;BME280;15333;50.010;20.020;2024-02-23T03:20:42;96895.31;;;10.03;100.00
28008;BME280;15333;50.010;20.020;2024-02-23T03:23:42;96882.63;;;10.05;100.00
28008;BME280;15333;50.010;20.020;2024-02-23T03:26:43;96887.97;;;10.05;100.00
28008;BME280;15333;50.010;20.020;2024-02-23T03:29:44;96885.44;;;10.03;100.00
28008;BME280;15333;50.010;20.020;2024-02-23T03:32:45;96890.28;;;10.00;100.00
28008;BME280;15333;50.010;20.020;2024-02-23T03:35:47;96898.66;;;10.05;100.00
28008;BME280;15333;50.010;20.020;2024-02-23T03:38:48;96889.31;;;10.09;100.00
28008;BME280;15333;50.010;20.020;2024-02-23T03:41:49;96900.00;;;10.09;100.00
28008;BME280;15333;50.010;20.020;2024-02-23T03:44:50;96890.78;;;10.03;100.00
28008;BME280;15333;50.010;20.020;2024-02-23T03:47:51;96903.69;;;10.08;100.00
28008;BME280;15333;50.010;20.020;2024-02-23T03:50:52;96911.34;;;10.03;100.00
28008;BME280;15333;50.010;20.020;2024-02-23T03:53:54;96911.72;;;10.16;100.00
28008;BME280;15333;50.010;20.020;2024-02-23T03:56:55;96910.50;;;10.02;100.00
28008;BME280;15333;50.010;20.020;2024-02-23T03:59:57;96915.63;;;9.96;100.00
28008;BME280;15333;50.010;20.020;2024-02-23T04:02:58;96918.25;;;9.88;100.00
28008;BME280;15333;50.010;20.020;2024-02-23T04:05:58;96921.16;;;9.94;100.00
28008;BME280;15333;50.010;20.020;2024-02-23T04:09:00;96929.38;;;10.01;100.00
28008;BME280;15333;50.010;20.020;2024-02-23T04:12:00;96935.34;;;9.95;100.00
28008;BME280;15333;50.010;20.020;2024-02-23T04:15:01;96930.31;;;9.92;100.00
28008;BME280;15333;50.010;20.020;2024-02-23T04:18:02;96938.06;;;10.03;100.00
28008;BME280;15333;50.010;20.020;2024-02-23T04:21:04;96939.06;;;10.02;100.00
28008;BME280;15333;50.010;20.020;2024-02-23T04:24:05;96943.09;;;10.06;100.00
28008;BME280;15333;50.010;20.020;2024-02-23T04:27:07;96947.00;;;9.86;100.00
28008;BME280;15333;50.010;20.020;2024-02-23T04:30:09;96934.19;;;9.71;100.00
28008;BME280;15333;50.010;20.020;2024-02-23T04:33:10;96940.81;;;9.67;100.00
28008;BME280;15333;50.010;20.020;2024-02-23T04:36:14;96948.72;;;9.51;100.00
28008;BME280;15333;50.010;20.020;2024-02-23T04:39:20;96956.66;;;9.43;100.00
28008;BME280;15333;50.010;20.020;2024-02-23T04:42:21;96959.50;;;9.41;100.00
28008;BME280;15333;50.010;20.020;2024-02-23T04:45:22;96960.00;;;9.45;100.00
28008;BME280;15333;50.010;20.020;2024-02-23T04:48:23;96947.97;;;9.41;100.00
28008;BME280;15333;50.010;20.020;2024-02-23T04:51:24;96966.06;;;9.29;100.00
28008;BME280;15333;50.010;20.020;2024-02-23T04:54:24;96965.50;;;9.26;100.00
28008;BME280;15333;50.010;20.020;2024-02-23T04:57:25;96966.06;;;9.29;100.00
28008;BME280;15333;50.010;20.020;2024-02-23T05:00:26;96968.78;;;9.20;100.00
28008;BME280;15333;50.010;20.020;2024-02-23T05:03:33;96959.88;;;9.29;100.00
28008;BME280;15333;50.010;20.020;2024-02-23T05:06:34;96972.16;;;9.22;100.00
28008;BME280;15333;50.010;20.020;2024-02-23T05:09:36;96974.22;;;9.28;100.00
28008;BME280;15333;50.010;20.020;2024-02-23T05:12:36;96987.47;;;9.20;100.00
28008;BME280;15333;50.010;20.020;2024-02-23T05:15:37;96983.81;;;9.21;100.00
28008;BME280;15333;50.010;20.020;2024-02-23T05:18:38;96987.19;;;9.23;100.00
28008;BME280;15333;50.010;20.020;2024-02-23T05:21:39;96989.16;;;9.21;100.00
28008;BME280;15333;50.010;20.020;2024-02-23T05:24:40;96998.06;;;9.12;100.00
28008;BME280;15333;50.010;20.020;2024-02-23T05:27:41;97006.06;;;9.12;100.00
28008;BME280;15333;50.010;20.020;2024-02-23T05:30:42;97002.69;;;9.10;100.00
28008;BME280;15333;50.010;20.020;2024-02-23T05:33:43;97016.66;;;9.03;100.00
28008;BME280;15333;50.010;20.020;2024-02-23T05:36:45;97013.75;;;8.97;100.00
28008;BME280;15333;50.010;20.020;2024-02-23T05:39:46;97015.16;;;9.01;100.00
28008;BME280;15333;50.010;20.020;2024-02-23T05:42:47;97026.06;;;9.08;100.00
28008;BME280;15333;50.010;20.020;2024-02-23T05:45:48;97028.31;;;9.02;100.00
28008;BME280;15333;50.010;20.020;2024-02-23T05:48:50;97032.00;;;9.01;100.00
28008;BME280;15333;50.010;20.020;2024-02-23T05:51:51;97043.69;;;8.91;100.00
28008;BME280;15333;50.010;20.020;2024-02-23T05:54:51;97045.28;;;8.84;100.00
28008;BME280;15333;50.010;20.020;2024-02-23T05:57:54;97049.66;;;8.75;100.00
28008;BME280;15333;50.010;20.020;2024-02-23T06:00:55;97053.91;;;8.68;100.00
28008;BME280;15333;50.010;20.020;2024-02-23T06:03:56;97056.63;;;8.58;100.00
28008;BME280;15333;50.010;20.020;2024-02-23T06:06:56;97066.19;;;8.51;100.00
28008;BME280;15333;50.010;20.020;2024-02-23T06:09:58;97069.56;;;8.44;95.35
28008;BME280;15333;50.010;20.020;2024-02-23T06:12:58;97062.69;;;8.41;76.42
28008;BME280;15333;50.010;20.020;2024-02-23T06:15:59;97070.69;;;8.41;70.70
28008;BME280;15333;50.010;20.020;2024-02-23T06:19:00;97083.88;;;8.43;70.95
28008;BME280;15333;50.010;20.020;2024-02-23T06:22:01;97085.84;;;8.41;71.10
28008;BME280;15333;50.010;20.020;2024-02-23T06:25:02;97084.59;;;8.35;71.03
28008;BME280;15333;50.010;20.020;2024-02-23T06:28:04;97094.81;;;8.40;71.64
28008;BME280;15333;50.010;20.020;2024-02-23T06:31:08;97099.91;;;8.23;70.45
28008;BME280;15333;50.010;20.020;2024-02-23T06:34:09;97103.53;;;8.22;69.97
28008;BME280;15333;50.010;20.020;2024-02-23T06:37:10;97114.47;;;8.19;69.08
28008;BME280;15333;50.010;20.020;2024-02-23T06:40:11;97108.34;;;8.09;67.75
28008;BME280;15333;50.010;20.020;2024-02-23T06:43:12;97115.47;;;8.09;66.89
28008;BME280;15333;50.010;20.020;2024-02-23T06:46:13;97118.41;;;8.15;66.48
28008;BME280;15333;50.010;20.020;2024-02-23T06:49:14;97118.56;;;8.23;66.90
28008;BME280;15333;50.010;20.020;2024-02-23T06:52:15;97109.38;;;8.55;67.25
28008;BME280;15333;50.010;20.020;2024-02-23T06:55:16;97127.22;;;8.54;67.58
28008;BME280;15333;50.010;20.020;2024-02-23T06:58:18;97134.53;;;8.43;66.54
28008;BME280;15333;50.010;20.020;2024-02-23T07:01:20;97139.16;;;8.41;65.90
28008;BME280;15333;50.010;20.020;2024-02-23T07:04:21;97145.47;;;8.40;65.11
28008;BME280;15333;50.010;20.020;2024-02-23T07:07:22;97150.13;;;8.38;65.36
28008;BME280;15333;50.010;20.020;2024-02-23T07:10:22;97146.44;;;8.48;64.61
28008;BME280;15333;50.010;20.020;2024-02-23T07:13:25;97150.34;;;8.54;64.80
28008;BME280;15333;50.010;20.020;2024-02-23T07:16:26;97152.63;;;8.49;64.49
28008;BME280;15333;50.010;20.020;2024-02-23T07:19:27;97155.00;;;8.52;63.67
28008;BME280;15333;50.010;20.020;2024-02-23T07:22:28;97157.69;;;8.52;64.12
28008;BME280;15333;50.010;20.020;2024-02-23T07:25:29;97166.94;;;8.48;65.12
28008;BME280;15333;50.010;20.020;2024-02-23T07:28:30;97163.81;;;8.62;66.38
28008;BME280;15333;50.010;20.020;2024-02-23T07:31:30;97172.91;;;8.79;67.54
28008;BME280;15333;50.010;20.020;2024-02-23T07:34:32;97177.28;;;8.70;68.70
28008;BME280;15333;50.010;20.020;2024-02-23T07:37:32;97173.63;;;8.71;69.39
28008;BME280;15333;50.010;20.020;2024-02-23T07:40:33;97180.34;;;8.75;69.29
28008;BME280;15333;50.010;20.020;2024-02-23T07:43:34;97174.44;;;8.81;70.10
28008;BME280;15333;50.010;20.020;2024-02-23T07:46:36;97188.34;;;8.75;70.38
28008;BME280;15333;50.010;20.020;2024-02-23T07:49:37;97191.59;;;8.79;70.25
28008;BME280;15333;50.010;20.020;2024-02-23T07:52:38;97198.63;;;8.70;70.06
28008;BME280;15333;50.010;20.020;2024-02-23T07:55:39;97204.09;;;8.69;69.71
28008;BME280;15333;50.010;20.020;2024-02-23T07:58:40;97209.84;;;8.74;68.95
28008;BME280;15333;50.010;20.020;2024-02-23T08:01:41;97211.78;;;8.81;66.88
28008;BME280;15333;50.010;20.020;2024-02-23T08:04:42;97221.91;;;8.87;67.95
28008;BME280;15333;50.010;20.020;2024-02-23T08:07:43;97221.00;;;8.96;68.66
28008;BME280;15333;50.010;20.020;2024-02-23T08:10:44;97226.34;;;8.96;68.94
28008;BME280;15333;50.010;20.020;2024-02-23T08:13:45;97227.44;;;9.03;69.41
28008;BME280;15333;50.010;20.020;2024-02-23T08:16:46;97232.25;;;8.90;68.38
28008;BME280;15333;50.010;20.020;2024-02-23T08:19:47;97237.63;;;8.71;66.16
28008;BME280;15333;50.010;20.020;2024-02-23T08:22:48;97240.44;;;8.60;65.52
28008;BME280;15333;50.010;20.020;2024-02-23T08:25:49;97239.63;;;8.59;64.46
28008;BME280;15333;50.010;20.020;2024-02-23T08:28:51;97251.69;;;8.54;64.04
28008;BME280;15333;50.010;20.020;2024-02-23T08:31:51;97247.19;;;8.64;65.05
28008;BME280;15333;50.010;20.020;2024-02-23T08:34:52;97247.22;;;8.45;64.92
28008;BME280;15333;50.010;20.020;2024-02-23T08:37:59;97261.38;;;8.55;63.75
28008;BME280;15333;50.010;20.020;2024-02-23T08:41:01;97257.56;;;8.48;63.57
28008;BME280;15333;50.010;20.020;2024-02-23T08:44:03;97251.53;;;8.46;63.05
28008;BME280;15333;50.010;20.020;2024-02-23T08:47:04;97242.97;;;8.71;62.45
28008;BME280;15333;50.010;20.020;2024-02-23T08:50:06;97253.66;;;8.71;63.28
28008;BME280;15333;50.010;20.020;2024-02-23T08:53:07;97266.28;;;8.79;62.46
28008;BME280;15333;50.010;20.020;2024-02-23T08:56:07;97258.13;;;8.80;63.24
28008;BME280;15333;50.010;20.020;2024-02-23T08:59:09;97251.66;;;8.92;63.87
28008;BME280;15333;50.010;20.020;2024-02-23T09:02:10;97270.72;;;8.97;63.75
28008;BME280;15333;50.010;20.020;2024-02-23T09:05:11;97271.44;;;8.99;63.58
28008;BME280;15333;50.010;20.020;2024-02-23T09:08:12;97280.25;;;9.10;63.78
28008;BME280;15333;50.010;20.020;2024-02-23T09:11:13;97276.50;;;8.83;64.43
28008;BME280;15333;50.010;20.020;2024-02-23T09:14:15;97282.56;;;8.66;63.87
28008;BME280;15333;50.010;20.020;2024-02-23T09:17:16;97279.47;;;8.61;62.83
28008;BME280;15333;50.010;20.020;2024-02-23T09:20:19;97289.44;;;8.88;62.29
28008;BME280;15333;50.010;20.020;2024-02-23T09:23:20;97291.81;;;8.91;62.32
28008;BME280;15333;50.010;20.020;2024-02-23T09:26:21;97292.91;;;8.98;62.54
28008;BME280;15333;50.010;20.020;2024-02-23T09:29:22;97286.19;;;8.84;62.87
28008;BME280;15333;50.010;20.020;2024-02-23T09:32:23;97291.25;;;8.78;62.54
28008;BME280;15333;50.010;20.020;2024-02-23T09:35:24;97298.25;;;9.08;62.58
28008;BME280;15333;50.010;20.020;2024-02-23T09:38:25;97301.44;;;9.21;62.21
28008;BME280;15333;50.010;20.020;2024-02-23T09:41:26;97315.94;;;9.09;62.98
28008;BME280;15333;50.010;20.020;2024-02-23T09:44:32;97317.78;;;8.89;62.73
28008;BME280;15333;50.010;20.020;2024-02-23T09:47:36;97319.31;;;8.82;62.87
28008;BME280;15333;50.010;20.020;2024-02-23T09:50:37;97332.69;;;8.72;63.07
28008;BME280;15333;50.010;20.020;2024-02-23T09:53:41;97337.03;;;8.92;62.77
28008;BME280;15333;50.010;20.020;2024-02-23T09:56:43;97336.72;;;8.95;63.19
28008;BME280;15333;50.010;20.020;2024-02-23T09:59:45;97357.53;;;9.01;63.40
28008;BME280;15333;50.010;20.020;2024-02-23T10:02:46;97360.88;;;9.13;64.28
28008;BME280;15333;50.010;20.020;2024-02-23T10:05:48;97355.81;;;9.20;64.57
28008;BME280;15333;50.010;20.020;2024-02-23T10:08:48;97349.09;;;9.16;65.63
28008;BME280;15333;50.010;20.020;2024-02-23T10:11:53;97347.09;;;9.27;65.31
28008;BME280;15333;50.010;20.020;2024-02-23T10:14:54;97344.38;;;9.47;65.88
28008;BME280;15333;50.010;20.020;2024-02-23T10:17:55;97347.31;;;9.53;66.20
28008;BME280;15333;50.010;20.020;2024-02-23T10:20:55;97353.53;;;9.44;66.00
28008;BME280;15333;50.010;20.020;2024-02-23T10:23:58;97352.34;;;9.66;66.11
28008;BME280;15333;50.010;20.020;2024-02-23T10:27:00;97352.88;;;9.69;67.07
28008;BME280;15333;50.010;20.020;2024-02-23T10:30:02;97351.59;;;9.73;67.48
28008;BME280;15333;50.010;20.020;2024-02-23T10:33:05;97343.88;;;9.70;66.67
28008;BME280;15333;50.010;20.020;2024-02-23T10:36:07;97347.94;;;10.11;66.69
28008;BME280;15333;50.010;20.020;2024-02-23T10:39:15;97355.25;;;10.19;67.28
28008;BME280;15333;50.010;20.020;2024-02-23T10:42:17;97356.19;;;9.91;68.74
28008;BME280;15333;50.010;20.020;2024-02-23T10:45:24;97352.75;;;10.08;67.44
28008;BME280;15333;50.010;20.020;2024-02-23T10:48:27;97352.44;;;10.11;67.77
28008;BME280;15333;50.010;20.020;2024-02-23T10:51:29;97348.56;;;9.96;66.08
28008;BME280;15333;50.010;20.020;2024-02-23T10:54:32;97352.16;;;10.14;65.22
28008;BME280;15333;50.010;20.020;2024-02-23T10:57:34;97349.91;;;10.19;69.11
28008;BME280;15333;50.010;20.020;2024-02-23T11:00:36;97347.06;;;10.48;71.62
28008;BME280;15333;50.010;20.020;2024-02-23T11:03:38;97345.84;;;10.60;70.76
28008;BME280;15333;50.010;20.020;2024-02-23T11:06:41;97346.31;;;10.55;70.38
28008;BME280;15333;50.010;20.020;2024-02-23T11:09:42;97347.81;;;10.40;70.99
28008;BME280;15333;50.010;20.020;2024-02-23T11:12:43;97347.28;;;10.54;71.06
28008;BME280;15333;50.010;20.020;2024-02-23T11:15:44;97352.44;;;10.66;71.35
28008;BME280;15333;50.010;20.020;2024-02-23T11:18:45;97360.38;;;10.30;68.83
28008;BME280;15333;50.010;20.020;2024-02-23T11:21:52;97364.66;;;10.68;70.23
28008;BME280;15333;50.010;20.020;2024-02-23T11:24:53;97369.84;;;10.70;71.10
28008;BME280;15333;50.010;20.020;2024-02-23T11:27:54;97365.50;;;10.51;69.58
28008;BME280;15333;50.010;20.020;2024-02-23T11:30:55;97374.59;;;10.31;69.11
28008;BME280;15333;50.010;20.020;2024-02-23T11:33:57;97359.38;;;10.58;73.37
28008;BME280;15333;50.010;20.020;2024-02-23T11:37:08;97368.75;;;10.17;72.15
28008;BME280;15333;50.010;20.020;2024-02-23T11:40:11;97364.53;;;10.15;73.60
28008;BME280;15333;50.010;20.020;2024-02-23T11:43:13;97370.94;;;9.95;73.27
28008;BME280;15333;50.010;20.020;2024-02-23T11:46:18;97361.56;;;10.45;75.00
28008;BME280;15333;50.010;20.020;2024-02-23T11:49:20;97371.06;;;10.57;73.25
28008;BME280;15333;50.010;20.020;2024-02-23T11:52:21;97367.69;;;10.55;73.36
28008;BME280;15333;50.010;20.020;2024-02-23T11:55:22;97373.81;;;10.48;72.59
28008;BME280;15333;50.010;20.020;2024-02-23T11:58:23;97360.28;;;10.49;72.36
28008;BME280;15333;50.010;20.020;2024-02-23T12:01:25;97370.19;;;10.39;73.15
28008;BME280;15333;50.010;20.020;2024-02-23T12:04:27;97375.75;;;10.28;73.48
28008;BME280;15333;50.010;20.020;2024-02-23T12:07:30;97382.78;;;10.29;73.69
28008;BME280;15333;50.010;20.020;2024-02-23T12:10:31;97386.72;;;10.25;72.50
28008;BME280;15333;50.010;20.020;2024-02-23T12:13:32;97386.03;;;10.50;72.67
28008;BME280;15333;50.010;20.020;2024-02-23T12:16:34;97378.88;;;10.69;74.44
28008;BME280;15333;50.010;20.020;2024-02-23T12:19:41;97382.00;;;10.64;74.19
28008;BME280;15333;50.010;20.020;2024-02-23T12:22:42;97396.44;;;10.53;74.02
28008;BME280;15333;50.010;20.020;2024-02-23T12:26:13;97393.03;;;10.96;74.26
28008;BME280;15333;50.010;20.020;2024-02-23T12:29:14;97393.66;;;10.90;74.81
28008;BME280;15333;50.010;20.020;2024-02-23T12:32:20;97395.41;;;10.82;72.67
28008;BME280;15333;50.010;20.020;2024-02-23T12:35:21;97394.78;;;10.88;73.70
28008;BME280;15333;50.010;20.020;2024-02-23T12:38:22;97406.00;;;11.01;73.47
28008;BME280;15333;50.010;20.020;2024-02-23T12:41:23;97399.00;;;10.90;73.27
28008;BME280;15333;50.010;20.020;2024-02-23T12:44:24;97400.22;;;10.78;73.79
28008;BME280;15333;50.010;20.020;2024-02-23T12:47:25;97407.31;;;10.70;73.86
28008;BME280;15333;50.010;20.020;2024-02-23T12:50:25;97412.66;;;10.70;72.60
28008;BME280;15333;50.010;20.020;2024-02-23T12:53:39;97422.41;;;10.43;73.84
28008;BME280;15333;50.010;20.020;2024-02-23T12:56:40;97411.88;;;10.32;71.56
28008;BME280;15333;50.010;20.020;2024-02-23T12:59:41;97401.41;;;10.21;71.24
28008;BME280;15333;50.010;20.020;2024-02-23T13:02:42;97401.72;;;9.99;68.61
28008;BME280;15333;50.010;20.020;2024-02-23T13:05:43;97409.13;;;9.77;67.59
28008;BME280;15333;50.010;20.020;2024-02-23T13:08:44;97429.94;;;10.11;69.02
28008;BME280;15333;50.010;20.020;2024-02-23T13:11:45;97430.94;;;10.19;70.52
28008;BME280;15333;50.010;20.020;2024-02-23T13:14:47;97426.38;;;9.93;70.58
28008;BME280;15333;50.010;20.020;2024-02-23T13:17:48;97426.25;;;9.85;67.50
28008;BME280;15333;50.010;20.020;2024-02-23T13:20:49;97431.28;;;9.88;66.14
28008;BME280;15333;50.010;20.020;2024-02-23T13:23:50;97426.53;;;9.81;65.48
28008;BME280;15333;50.010;20.020;2024-02-23T13:26:51;97435.78;;;9.97;65.57
28008;BME280;15333;50.010;20.020;2024-02-23T13:29:52;97430.31;;;9.89;65.29
28008;BME280;15333;50.010;20.020;2024-02-23T13:32:53;97425.84;;;9.79;64.72
28008;BME280;15333;50.010;20.020;2024-02-23T13:35:54;97433.56;;;9.82;65.18
28008;BME280;15333;50.010;20.020;2024-02-23T13:38:55;97442.09;;;9.96;65.01
28008;BME280;15333;50.010;20.020;2024-02-23T13:41:56;97445.28;;;10.28;66.45
28008;BME280;15333;50.010;20.020;2024-02-23T13:44:57;97449.31;;;10.32;68.49
28008;BME280;15333;50.010;20.020;2024-02-23T13:48:02;97444.72;;;10.25;66.95
28008;BME280;15333;50.010;20.020;2024-02-23T13:51:04;97452.00;;;10.32;65.79
28008;BME280;15333;50.010;20.020;2024-02-23T13:54:05;97445.88;;;10.22;67.40
28008;BME280;15333;50.010;20.020;2024-02-23T13:57:09;97438.59;;;9.95;66.51
28008;BME280;15333;50.010;20.020;2024-02-23T14:00:11;97447.63;;;9.85;67.89
28008;BME280;15333;50.010;20.020;2024-02-23T14:03:16;97442.53;;;9.91;66.34
28008;BME280;15333;50.010;20.020;2024-02-23T14:06:20;97459.56;;;9.80;65.88
28008;BME280;15333;50.010;20.020;2024-02-23T14:09:21;97458.63;;;9.62;65.80
28008;BME280;15333;50.010;20.020;2024-02-23T14:12:22;97463.66;;;9.75;66.14
28008;BME280;15333;50.010;20.020;2024-02-23T14:15:23;97459.47;;;9.53;65.69
28008;BME280;15333;50.010;20.020;2024-02-23T14:18:24;97464.56;;;9.37;65.15
28008;BME280;15333;50.010;20.020;2024-02-23T14:21:25;97463.84;;;9.35;64.34
28008;BME280;15333;50.010;20.020;2024-02-23T14:24:26;97467.78;;;9.31;63.48
28008;BME280;15333;50.010;20.020;2024-02-23T14:27:27;97467.34;;;9.26;63.30
28008;BME280;15333;50.010;20.020;2024-02-23T14:30:29;97460.34;;;9.34;63.13
28008;BME280;15333;50.010;20.020;2024-02-23T14:33:29;97460.44;;;9.52;64.17
28008;BME280;15333;50.010;20.020;2024-02-23T14:36:31;97463.72;;;9.36;64.96
28008;BME280;15333;50.010;20.020;2024-02-23T14:39:34;97467.50;;;9.53;67.61
28008;BME280;15333;50.010;20.020;2024-02-23T14:42:35;97471.88;;;9.45;69.47
28008;BME280;15333;50.010;20.020;2024-02-23T14:45:36;97464.28;;;9.40;70.85
28008;BME280;15333;50.010;20.020;2024-02-23T14:48:37;97461.88;;;9.27;71.33
28008;BME280;15333;50.010;20.020;2024-02-23T14:51:38;97461.63;;;9.30;71.60
28008;BME280;15333;50.010;20.020;2024-02-23T14:54:40;97459.09;;;9.29;72.67
28008;BME280;15333;50.010;20.020;2024-02-23T14:57:41;97462.03;;;9.26;71.55
28008;BME280;15333;50.010;20.020;2024-02-23T15:00:42;97461.47;;;9.13;70.46
28008;BME280;15333;50.010;20.020;2024-02-23T15:03:43;97468.19;;;9.17;70.86
28008;BME280;15333;50.010;20.020;2024-02-23T15:06:44;97472.69;;;9.07;71.21
28008;BME280;15333;50.010;20.020;2024-02-23T15:09:45;97479.56;;;8.99;69.47
28008;BME280;15333;50.010;20.020;2024-02-23T15:12:46;97481.38;;;8.89;69.81
28008;BME280;15333;50.010;20.020;2024-02-23T15:15:47;97475.47;;;8.86;69.28
28008;BME280;15333;50.010;20.020;2024-02-23T15:18:48;97476.88;;;8.80;68.42
28008;BME280;15333;50.010;20.020;2024-02-23T15:21:49;97473.75;;;8.75;67.78
28008;BME280;15333;50.010;20.020;2024-02-23T15:24:53;97470.66;;;8.70;67.78
28008;BME280;15333;50.010;20.020;2024-02-23T15:27:54;97478.78;;;8.69;66.14
28008;BME280;15333;50.010;20.020;2024-02-23T15:30:57;97474.84;;;8.63;66.67
28008;BME280;15333;50.010;20.020;2024-02-23T15:33:59;97474.84;;;8.63;66.89
28008;BME280;15333;50.010;20.020;2024-02-23T15:37:00;97482.69;;;8.55;66.89
28008;BME280;15333;50.010;20.020;2024-02-23T15:40:01;97483.81;;;8.62;67.19
28008;BME280;15333;50.010;20.020;2024-02-23T15:43:04;97479.34;;;8.62;67.63
28008;BME280;15333;50.010;20.020;2024-02-23T15:46:05;97495.03;;;8.56;67.63
28008;BME280;15333;50.010;20.020;2024-02-23T15:49:06;97495.28;;;8.43;67.57
28008;BME280;15333;50.010;20.020;2024-02-23T15:52:07;97488.19;;;8.33;67.34
28008;BME280;15333;50.010;20.020;2024-02-23T15:55:08;97477.53;;;8.33;67.27